Time;durP1;ratioP1;P1;durP2;ratioP2;P2;SDS_P1;SDS_P2;PMS_P1;PMS_P2;Temp;Humidity;BMP_temperature;BMP_pressure;BME280_temperature;BME280_humidity;BME280_pressure;Samples;Min_cycle;Max_cycle;Signal;HPM_P1;HPM_P2
2022/05/22 00:02:10;;;;;;;1.27;0.75;;;;;;;28.62;27.69;96825.63;5052609;28;20100;-32
2022/05/22 00:04:36;;;;;;;1.10;0.55;;;;;;;28.62;27.85;96825.63;5055653;28;20025;-31
2022/05/22 00:07:01;;;;;;;2.67;1.00;;;;;;;28.61;27.65;96830.06;5063488;28;20024;-30
2022/05/22 00:09:30;;;;;;;1.42;0.70;;;;;;;28.62;27.77;96831.75;5057993;28;20029;-34
2022/05/22 00:11:55;;;;;;;4.40;0.70;;;;;;;28.61;27.83;96824.78;5059563;28;20316;-32
2022/05/22 00:14:21;;;;;;;1.25;0.80;;;;;;;28.61;27.94;96816.88;5061763;28;20029;-31
2022/05/22 00:16:47;;;;;;;1.20;0.80;;;;;;;28.62;27.93;96821.19;5059874;28;20024;-31
2022/05/22 00:19:15;;;;;;;0.93;0.50;;;;;;;28.62;27.78;96822.97;5040972;28;20024;-30
2022/05/22 00:21:40;;;;;;;2.45;0.80;;;;;;;28.61;27.78;96830.06;5058723;28;20028;-32
2022/05/22 00:24:06;;;;;;;0.57;0.50;;;;;;;28.62;27.77;96830.88;5062237;28;20956;-33
2022/05/22 00:26:32;;;;;;;1.10;0.70;;;;;;;28.62;28.03;96821.19;5064437;28;20035;-33
2022/05/22 00:28:57;;;;;;;0.40;0.40;;;;;;;28.62;27.89;96815.91;5061635;28;20055;-31
2022/05/22 00:31:22;;;;;;;2.33;0.60;;;;;;;28.62;27.80;96815.91;5059140;28;20064;-32
2022/05/22 00:33:48;;;;;;;0.50;0.40;;;;;;;28.62;27.76;96810.66;5061403;28;20117;-32
2022/05/22 00:36:13;;;;;;;1.75;0.70;;;;;;;28.62;27.80;96804.53;5062038;28;20039;-30
2022/05/22 00:38:39;;;;;;;1.00;0.60;;;;;;;28.61;27.79;96803.69;5063182;28;20027;-31
2022/05/22 00:41:04;;;;;;;1.38;0.50;;;;;;;28.62;27.89;96800.09;5062080;28;20039;-31
2022/05/22 00:43:31;;;;;;;1.13;0.60;;;;;;;28.62;27.92;96800.09;5057334;28;20036;-33
2022/05/22 00:45:57;;;;;;;1.38;0.50;;;;;;;28.62;28.01;96802.75;5056947;28;20070;-30
2022/05/22 00:48:22;;;;;;;1.02;0.60;;;;;;;28.61;27.96;96798.41;5064313;28;20580;-29
2022/05/22 00:50:48;;;;;;;2.10;0.60;;;;;;;28.63;27.98;96795.66;5055139;28;20368;-35
2022/05/22 00:53:14;;;;;;;1.35;0.60;;;;;;;28.62;27.99;96800.09;5057030;28;21997;-30
2022/05/22 00:55:39;;;;;;;1.85;0.60;;;;;;;28.63;28.08;96796.50;5052549;28;20039;-30
2022/05/22 00:58:07;;;;;;;1.25;0.60;;;;;;;28.63;28.13;96795.66;5055528;28;20036;-31
2022/05/22 01:00:34;;;;;;;1.40;0.57;;;;;;;28.63;27.89;96796.50;5047031;28;20052;-30
2022/05/22 01:05:47;;;;;;;1.45;0.63;;;;;;;28.63;28.10;96799.16;5058882;28;20124;-30
2022/05/22 01:08:12;;;;;;;1.00;0.55;;;;;;;28.63;27.89;96788.59;5060061;28;20563;-34
2022/05/22 01:10:43;;;;;;;3.10;0.70;;;;;;;28.62;27.86;96784.28;5054664;28;20013;-29
2022/05/22 01:13:09;;;;;;;0.90;0.40;;;;;;;28.64;27.91;96786.81;5058970;28;20042;-32
2022/05/22 01:15:34;;;;;;;0.95;0.63;;;;;;;28.63;28.06;96777.19;5057442;28;20019;-29
2022/05/22 01:18:00;;;;;;;1.83;0.60;;;;;;;28.64;28.12;96781.56;5055697;28;20032;-30
2022/05/22 01:20:25;;;;;;;1.50;0.60;;;;;;;28.62;28.16;96779.00;5062405;28;20968;-30
2022/05/22 01:22:51;;;;;;;1.45;0.77;;;;;;;28.63;27.69;96778.06;5061623;28;20759;-33
2022/05/22 01:25:16;;;;;;;1.10;0.63;;;;;;;28.64;28.06;96784.19;5064232;28;20028;-31
2022/05/22 01:27:41;;;;;;;1.25;0.63;;;;;;;28.64;28.03;96781.56;5061174;28;20387;-32
2022/05/22 01:30:18;;;;;;;0.70;0.47;;;;;;;28.63;28.29;96785.97;5061520;28;20031;-30
2022/05/22 01:32:45;;;;;;;1.60;0.60;;;;;;;28.64;28.05;96792.09;5054386;28;20032;-30
2022/05/22 01:35:12;;;;;;;1.23;0.70;;;;;;;28.63;28.03;96785.97;5056790;28;20581;-30
2022/05/22 01:37:38;;;;;;;1.52;0.80;;;;;;;28.63;28.20;96790.38;5061370;28;20032;-30
2022/05/22 01:40:04;;;;;;;1.15;0.50;;;;;;;28.63;28.05;96787.75;5053707;28;20475;-30
2022/05/22 01:42:29;;;;;;;0.75;0.60;;;;;;;28.61;28.16;96787.00;5055171;28;20154;-31
2022/05/22 01:44:55;;;;;;;0.70;0.50;;;;;;;28.63;28.24;96785.13;5054626;28;20036;-29
2022/05/22 01:47:20;;;;;;;1.98;0.70;;;;;;;28.62;28.08;96781.66;5054605;28;20036;-31
2022/05/22 01:49:46;;;;;;;2.20;0.60;;;;;;;28.64;27.84;96784.19;5053779;28;20024;-32
2022/05/22 01:52:11;;;;;;;1.27;0.52;;;;;;;28.63;27.98;96780.69;5056579;28;20491;-30
2022/05/22 01:54:36;;;;;;;1.35;0.50;;;;;;;28.64;28.05;96782.38;5056178;28;20043;-30
2022/05/22 01:57:02;;;;;;;0.60;0.50;;;;;;;28.63;28.17;96785.97;5057462;28;20020;-30
2022/05/22 01:59:28;;;;;;;1.00;0.60;;;;;;;28.63;28.17;96783.34;5056002;28;20966;-31
2022/05/22 02:01:53;;;;;;;1.98;0.57;;;;;;;28.62;28.25;96784.28;5058964;28;20656;-30
2022/05/22 02:04:18;;;;;;;0.85;0.52;;;;;;;28.63;27.94;96783.34;5057857;28;20472;-29
2022/05/22 02:09:28;;;;;;;0.98;0.65;;;;;;;28.64;28.16;96771.84;5057038;28;20098;-31
2022/05/22 02:11:53;;;;;;;1.20;0.70;;;;;;;28.64;28.17;96777.09;5057492;28;22029;-30
2022/05/22 02:14:20;;;;;;;0.43;0.43;;;;;;;28.63;28.24;96775.44;5046050;28;20039;-29
2022/05/22 02:16:45;;;;;;;1.35;0.70;;;;;;;28.64;28.38;96771.00;5049392;28;20525;-31
2022/05/22 02:19:10;;;;;;;1.15;0.50;;;;;;;28.64;28.04;96771.84;5049499;28;20078;-31
2022/05/22 02:21:36;;;;;;;0.57;0.43;;;;;;;28.63;28.10;96759.59;5054635;28;20031;-31
2022/05/22 02:24:02;;;;;;;1.95;0.70;;;;;;;28.64;28.20;96760.47;5056141;28;20544;-30
2022/05/22 02:26:27;;;;;;;0.63;0.50;;;;;;;28.64;27.98;96748.09;5061351;28;20947;-30
2022/05/22 02:28:53;;;;;;;0.40;0.40;;;;;;;28.64;28.29;96748.09;5060028;28;20032;-34
2022/05/22 02:31:18;;;;;;;1.77;0.50;;;;;;;28.65;28.10;96741.88;5047916;28;22102;-34
2022/05/22 02:33:43;;;;;;;0.73;0.60;;;;;;;28.63;28.29;96741.16;5051260;28;20044;-30
2022/05/22 02:36:13;;;;;;;0.95;0.50;;;;;;;28.63;28.38;96733.25;5060252;28;20028;-34
2022/05/22 02:38:39;;;;;;;0.88;0.50;;;;;;;28.62;28.32;96731.56;5062382;28;20033;-30
2022/05/22 02:41:11;;;;;;;1.02;0.50;;;;;;;28.63;28.48;96733.25;5059381;28;20067;-31
2022/05/22 02:43:37;;;;;;;1.48;0.68;;;;;;;28.62;28.10;96731.56;5047908;28;20034;-29
2022/05/22 02:46:06;;;;;;;0.45;0.40;;;;;;;28.63;28.28;96738.50;5059121;28;20020;-32
2022/05/22 02:48:32;;;;;;;0.93;0.40;;;;;;;28.62;28.19;96731.56;5053627;28;20028;-30
2022/05/22 02:50:57;;;;;;;2.50;0.47;;;;;;;28.63;28.27;96732.38;5055358;28;20129;-32
2022/05/22 02:53:23;;;;;;;0.57;0.50;;;;;;;28.62;28.45;96731.56;5058606;28;20065;-30
2022/05/22 02:55:48;;;;;;;1.75;0.55;;;;;;;28.63;28.37;96735.88;5051358;28;20740;-31
2022/05/22 02:58:13;;;;;;;4.00;0.70;;;;;;;28.63;28.26;96737.66;5052849;28;20047;-30
2022/05/22 03:00:39;;;;;;;1.30;0.50;;;;;;;28.63;28.17;96727.97;5056081;28;20055;-31
2022/05/22 03:03:04;;;;;;;1.05;0.57;;;;;;;28.63;28.24;96727.97;5055988;28;21065;-30
2022/05/22 03:06:38;;;;;;;1.15;0.50;;;;;;;28.63;28.36;96721.84;5050708;28;20586;-30
2022/05/22 03:08:16;;;;;;;1.60;0.70;;;;;;;28.62;28.47;96715.75;5048947;28;20036;-30
2022/05/22 03:10:41;;;;;;;0.32;0.32;;;;;;;28.63;28.34;96712.16;5056876;28;20024;-30
2022/05/22 03:13:06;;;;;;;1.05;0.40;;;;;;;28.62;28.18;96707.81;5053873;28;20028;-30
2022/05/22 03:15:32;;;;;;;2.30;0.60;;;;;;;28.64;28.17;96700.66;5054589;28;20024;-30
2022/05/22 03:17:57;;;;;;;0.77;0.52;;;;;;;28.63;28.49;96704.25;5060029;28;20024;-29
2022/05/22 03:20:23;;;;;;;0.95;0.55;;;;;;;28.62;28.34;96710.47;5056387;28;20028;-30
2022/05/22 03:22:48;;;;;;;0.70;0.50;;;;;;;28.62;28.58;96705.19;5054314;28;20040;-28
2022/05/22 03:25:14;;;;;;;0.88;0.60;;;;;;;28.62;28.15;96702.56;5051650;28;20032;-31
2022/05/22 03:27:39;;;;;;;1.30;0.75;;;;;;;28.64;28.30;96718.28;5052723;28;20848;-32
2022/05/22 03:30:05;;;;;;;2.05;0.68;;;;;;;28.63;28.15;96708.66;5058386;28;20028;-31
2022/05/22 03:32:32;;;;;;;1.38;0.50;;;;;;;28.62;28.43;96715.75;5051785;28;20036;-31
2022/05/22 03:34:57;;;;;;;0.85;0.50;;;;;;;28.62;28.51;96707.81;5049690;28;20047;-29
2022/05/22 03:37:25;;;;;;;0.75;0.52;;;;;;;28.62;28.36;96699.91;5052276;28;20032;-31
2022/05/22 03:39:54;;;;;;;2.05;0.60;;;;;;;28.62;28.27;96702.56;5059591;28;20055;-34
2022/05/22 03:42:19;;;;;;;0.65;0.40;;;;;;;28.63;28.40;96703.38;5051821;28;20602;-30
2022/05/22 03:44:44;;;;;;;0.68;0.50;;;;;;;28.64;28.37;96713.81;5057945;28;20032;-29
2022/05/22 03:47:10;;;;;;;1.38;0.43;;;;;;;28.63;28.45;96714.78;5050844;28;20032;-30
2022/05/22 03:49:35;;;;;;;1.63;0.70;;;;;;;28.62;28.41;96707.81;5058171;28;20117;-31
2022/05/22 03:52:01;;;;;;;0.82;0.50;;;;;;;28.63;28.52;96690.19;5047666;28;20032;-31
2022/05/22 03:54:26;;;;;;;2.78;0.70;;;;;;;28.60;28.33;96682.50;5053784;28;20847;-30
2022/05/22 03:56:53;;;;;;;0.50;0.47;;;;;;;28.62;28.51;96697.28;5054999;28;20044;-32
2022/05/22 03:59:18;;;;;;;0.63;0.40;;;;;;;28.62;28.53;96689.38;5055267;28;20050;-31
2022/05/22 04:01:44;;;;;;;0.63;0.60;;;;;;;28.62;28.58;96678.81;5051344;28;20037;-32
2022/05/22 04:04:09;;;;;;;1.10;0.60;;;;;;;28.63;28.63;96674.38;5049220;28;20028;-36
2022/05/22 04:06:34;;;;;;;0.70;0.57;;;;;;;28.62;28.61;96678.81;5057501;28;20035;-31
2022/05/22 04:09:00;;;;;;;0.60;0.50;;;;;;;28.62;28.27;96688.50;5058583;28;20090;-30
2022/05/22 04:11:25;;;;;;;0.90;0.80;;;;;;;28.62;28.52;96677.97;5045982;28;20834;-32
2022/05/22 04:13:50;;;;;;;1.67;0.50;;;;;;;28.62;28.37;96684.09;5054947;28;20028;-31
2022/05/22 04:16:16;;;;;;;0.50;0.40;;;;;;;28.62;28.35;96677.97;5058303;28;20191;-29
2022/05/22 04:18:41;;;;;;;1.38;0.50;;;;;;;28.62;28.52;96686.75;5056749;28;20032;-30
2022/05/22 04:21:08;;;;;;;0.80;0.40;;;;;;;28.62;28.52;96686.75;5057486;28;20043;-32
2022/05/22 04:26:17;;;;;;;0.63;0.52;;;;;;;28.62;28.30;96667.44;5058756;28;21304;-32
2022/05/22 04:28:42;;;;;;;1.17;0.60;;;;;;;28.62;28.48;96678.81;5056039;28;23156;-30
2022/05/22 04:31:08;;;;;;;0.38;0.38;;;;;;;28.61;28.78;96677.16;5055408;28;20528;-31
2022/05/22 04:33:33;;;;;;;0.65;0.60;;;;;;;28.63;28.58;96663.84;5057139;28;20047;-32
2022/05/22 04:35:59;;;;;;;0.82;0.60;;;;;;;28.62;28.51;96647.19;5058188;28;20050;-29
2022/05/22 04:38:24;;;;;;;1.02;0.63;;;;;;;28.62;28.48;96657.72;5060624;28;20028;-30
2022/05/22 04:40:57;;;;;;;3.47;0.50;;;;;;;28.62;28.46;96663.00;5060754;28;20037;-33
2022/05/22 04:43:23;;;;;;;0.65;0.60;;;;;;;28.61;28.70;96653.41;5052279;28;20107;-31
2022/05/22 04:45:50;;;;;;;0.85;0.40;;;;;;;28.63;28.69;96648.88;5055174;28;20063;-31
2022/05/22 04:48:16;;;;;;;1.77;0.70;;;;;;;28.63;28.53;96658.56;5057767;28;20028;-31
2022/05/22 04:50:41;;;;;;;0.98;0.60;;;;;;;28.62;28.61;96649.81;5055083;28;20028;-30
2022/05/22 04:53:06;;;;;;;0.88;0.40;;;;;;;28.62;28.48;96636.66;5052419;28;21935;-33
2022/05/22 04:55:32;;;;;;;1.55;0.65;;;;;;;28.62;28.58;96644.56;5054987;28;20024;-31
2022/05/22 04:57:57;;;;;;;0.85;0.60;;;;;;;28.62;28.52;96636.66;5049345;28;20035;-34
2022/05/22 05:00:23;;;;;;;0.93;0.40;;;;;;;28.63;28.84;96638.31;5058868;28;20028;-34
2022/05/22 05:02:48;;;;;;;0.40;0.40;;;;;;;28.63;28.48;96648.00;5055179;28;20553;-31
2022/05/22 05:05:13;;;;;;;1.33;0.52;;;;;;;28.63;28.60;96638.31;5058691;28;20037;-30
2022/05/22 05:07:40;;;;;;;1.25;0.55;;;;;;;28.63;28.58;96638.31;5062935;28;20036;-31
2022/05/22 05:10:07;;;;;;;0.50;0.50;;;;;;;28.63;28.62;96643.59;5061957;28;20035;-29
2022/05/22 05:12:36;;;;;;;1.25;0.40;;;;;;;28.62;28.51;96641.06;5066198;28;20028;-30
2022/05/22 05:15:02;;;;;;;1.08;0.50;;;;;;;28.62;28.33;96638.41;5061044;28;20146;-32
2022/05/22 05:17:28;;;;;;;2.28;0.57;;;;;;;28.62;28.52;96647.19;5060381;28;20025;-29
2022/05/22 05:19:53;;;;;;;0.70;0.50;;;;;;;28.64;28.87;96639.19;5058160;28;20039;-32
2022/05/22 05:22:19;;;;;;;1.50;0.63;;;;;;;28.62;28.49;96634.00;5062378;28;20094;-32
2022/05/22 05:24:44;;;;;;;1.05;0.50;;;;;;;28.63;28.49;96637.47;5062010;28;21954;-34
2022/05/22 05:27:10;;;;;;;1.15;0.50;;;;;;;28.63;28.58;96638.31;5059934;28;20398;-36
2022/05/22 05:29:35;;;;;;;1.65;0.55;;;;;;;28.63;28.55;96638.31;5064347;28;20024;-32
2022/05/22 05:32:00;;;;;;;1.73;0.55;;;;;;;28.63;28.50;96633.06;5059580;28;20032;-30
2022/05/22 05:34:26;;;;;;;1.80;0.65;;;;;;;28.64;28.45;96640.00;5059315;28;20040;-31
2022/05/22 05:36:51;;;;;;;1.67;0.50;;;;;;;28.64;28.35;96649.72;5045755;28;20039;-34
2022/05/22 05:39:17;;;;;;;0.63;0.32;;;;;;;28.64;28.66;96649.72;5056609;28;20702;-30
2022/05/22 05:41:42;;;;;;;1.60;0.60;;;;;;;28.64;28.65;96642.66;5058735;28;20047;-30
2022/05/22 05:44:08;;;;;;;1.17;0.55;;;;;;;28.64;28.73;96645.28;5057155;28;20163;-30
2022/05/22 05:46:37;;;;;;;4.90;0.55;;;;;;;28.65;28.66;96644.31;5057843;28;20020;-31
2022/05/22 05:49:03;;;;;;;1.33;0.60;;;;;;;28.66;28.50;96650.44;5055462;28;20060;-32
2022/05/22 05:51:29;;;;;;;2.35;0.50;;;;;;;28.66;28.46;96640.75;5055585;28;20162;-32
2022/05/22 05:53:54;;;;;;;0.70;0.50;;;;;;;28.66;28.40;96643.41;5060138;28;21653;-30
2022/05/22 05:56:20;;;;;;;1.65;0.40;;;;;;;28.66;28.54;96624.09;5058358;28;20054;-30
2022/05/22 05:58:45;;;;;;;1.23;0.70;;;;;;;28.66;28.72;96632.84;5053635;28;20104;-30
2022/05/22 06:01:14;;;;;;;1.00;0.50;;;;;;;28.66;28.63;96627.59;5057920;28;20028;-30
2022/05/22 06:03:39;;;;;;;1.13;0.45;;;;;;;28.66;28.79;96632.00;5065335;28;20032;-30
2022/05/22 06:06:12;;;;;;;0.50;0.50;;;;;;;28.66;28.69;96622.31;5055463;28;23365;-30
2022/05/22 06:08:37;;;;;;;0.63;0.47;;;;;;;28.67;28.71;96618.72;5060796;28;20146;-30
2022/05/22 06:11:03;;;;;;;0.55;0.40;;;;;;;28.67;28.58;96613.44;5061915;28;20482;-31
2022/05/22 06:13:28;;;;;;;1.75;0.30;;;;;;;28.67;28.64;96616.06;5061216;28;20020;-30
2022/05/22 06:15:54;;;;;;;0.60;0.43;;;;;;;28.67;28.54;96612.59;5057824;28;20078;-28
2022/05/22 06:18:20;;;;;;;1.40;0.40;;;;;;;28.66;28.74;96611.75;5053510;28;20024;-32
2022/05/22 06:20:46;;;;;;;1.83;0.47;;;;;;;28.66;28.64;96606.50;5059892;28;20977;-29
2022/05/22 06:23:11;;;;;;;0.55;0.40;;;;;;;28.67;28.64;96613.44;5057670;28;20152;-29
2022/05/22 06:25:36;;;;;;;0.73;0.47;;;;;;;28.67;28.69;96618.72;5056950;28;20032;-29
2022/05/22 06:28:02;;;;;;;2.08;0.63;;;;;;;28.66;28.43;96617.03;5061664;28;20089;-32
2022/05/22 06:30:27;;;;;;;0.50;0.50;;;;;;;28.67;28.48;96613.44;5055266;28;20034;-31
2022/05/22 06:32:53;;;;;;;0.70;0.47;;;;;;;28.67;28.77;96618.72;5053746;28;20027;-30
2022/05/22 06:35:19;;;;;;;1.00;0.57;;;;;;;28.68;28.63;96624.84;5062214;28;20028;-33
2022/05/22 06:37:44;;;;;;;7.22;1.02;;;;;;;28.68;28.55;96609.84;5055774;28;20929;-33
2022/05/22 06:40:10;;;;;;;5.97;1.40;;;;;;;28.68;28.70;96615.13;5051268;28;20024;-32
2022/05/22 06:42:44;;;;;;;5.60;1.70;;;;;;;28.65;28.35;96604.78;5057132;28;20059;-33
2022/05/22 06:45:13;;;;;;;4.78;1.85;;;;;;;28.62;28.30;96605.00;5056532;28;20035;-30
2022/05/22 06:47:39;;;;;;;6.70;2.05;;;;;;;28.57;28.00;96609.75;5055946;28;20058;-30
2022/05/22 06:50:07;;;;;;;5.22;1.70;;;;;;;28.53;27.98;96610.91;5056588;28;20036;-31
2022/05/22 06:52:33;;;;;;;4.05;1.70;;;;;;;28.47;27.89;96606.03;5062500;28;20032;-30
2022/05/22 06:54:59;;;;;;;7.95;1.70;;;;;;;28.43;28.08;96623.84;5046236;28;20043;-32
2022/05/22 06:57:24;;;;;;;4.70;1.50;;;;;;;28.39;28.08;96630.28;5057324;28;20055;-34
2022/05/22 06:59:53;;;;;;;8.65;1.70;;;;;;;28.35;27.99;96631.41;5057889;28;20479;-30
2022/05/22 07:02:18;;;;;;;3.28;1.50;;;;;;;28.31;27.72;96628.16;5052784;28;20078;-31
2022/05/22 07:04:44;;;;;;;3.88;1.63;;;;;;;28.27;27.82;96631.94;5057921;28;20058;-31
2022/05/22 07:07:09;;;;;;;3.10;1.20;;;;;;;28.22;27.74;96623.47;5059214;28;20235;-31
2022/05/22 07:09:35;;;;;;;3.28;1.30;;;;;;;28.17;27.75;96621.97;5056652;28;20033;-30
2022/05/22 07:12:01;;;;;;;4.47;1.60;;;;;;;28.15;27.84;96621.22;5054190;28;20051;-31
2022/05/22 07:14:27;;;;;;;2.40;1.27;;;;;;;28.13;27.84;96612.56;5057456;28;20024;-32
2022/05/22 07:16:53;;;;;;;5.05;1.50;;;;;;;28.12;27.87;96613.53;5059422;28;20036;-30
2022/05/22 07:19:19;;;;;;;3.88;1.50;;;;;;;28.11;27.82;96611.00;5049538;28;20039;-29
2022/05/22 07:21:45;;;;;;;2.58;1.27;;;;;;;28.10;27.64;96610.13;5060970;28;20029;-33
2022/05/22 07:24:11;;;;;;;2.97;1.02;;;;;;;28.09;27.66;96613.72;5060848;28;20032;-31
2022/05/22 07:26:36;;;;;;;6.20;1.50;;;;;;;28.08;27.68;96609.41;5056042;28;20020;-31
2022/05/22 07:29:02;;;;;;;2.97;1.30;;;;;;;28.07;27.89;96610.31;5059631;28;20040;-33
2022/05/22 07:31:28;;;;;;;5.25;1.58;;;;;;;28.08;27.77;96606.78;5054803;28;20032;-30
2022/05/22 07:33:55;;;;;;;3.00;1.38;;;;;;;28.07;27.74;96602.44;5053244;28;20024;-30
2022/05/22 07:36:20;;;;;;;3.33;1.33;;;;;;;28.07;27.54;96605.06;5060627;28;20054;-32
2022/05/22 07:38:46;;;;;;;3.50;1.20;;;;;;;28.06;27.64;96595.47;5058399;28;20159;-32
2022/05/22 07:41:14;;;;;;;3.15;1.25;;;;;;;28.07;27.78;96596.34;5055250;28;20063;-31
2022/05/22 07:43:40;;;;;;;2.78;1.00;;;;;;;28.06;27.63;96592.84;5055863;28;20151;-33
2022/05/22 07:46:06;;;;;;;4.03;1.52;;;;;;;28.05;27.69;96596.44;5060285;28;20028;-32
2022/05/22 07:48:32;;;;;;;2.20;1.30;;;;;;;28.02;27.68;96591.34;5057677;28;20067;-32
2022/05/22 07:50:58;;;;;;;1.77;1.30;;;;;;;28.01;27.66;96589.66;5055071;28;20078;-33
2022/05/22 07:53:25;;;;;;;3.88;1.63;;;;;;;28.01;27.60;96594.94;5060659;28;20486;-33
2022/05/22 07:55:50;;;;;;;4.03;1.50;;;;;;;27.99;27.69;96597.66;5062488;28;20114;-33
2022/05/22 07:58:16;;;;;;;3.70;1.40;;;;;;;27.99;27.58;96586.31;5060920;28;20037;-33
2022/05/22 08:00:42;;;;;;;4.72;1.42;;;;;;;27.99;27.62;96586.31;5060872;28;20081;-33
2022/05/22 08:03:12;;;;;;;6.82;1.50;;;;;;;27.99;27.78;96581.03;5057978;28;20544;-30
2022/05/22 08:05:37;;;;;;;2.88;1.40;;;;;;;27.98;27.72;96576.69;5060346;28;20064;-33
2022/05/22 08:08:03;;;;;;;3.50;1.38;;;;;;;27.99;27.60;96575.78;5063517;28;20093;-31
2022/05/22 08:10:28;;;;;;;3.95;1.48;;;;;;;27.99;27.42;96581.03;5060552;28;20036;-37
2022/05/22 08:12:53;;;;;;;6.20;1.20;;;;;;;27.99;27.39;96570.50;5059790;28;20737;-30
2022/05/22 08:15:21;;;;;;;3.05;1.50;;;;;;;27.99;27.58;96558.16;5059038;28;20685;-31
2022/05/22 08:17:46;;;;;;;3.78;1.30;;;;;;;27.99;27.67;96559.97;5059063;28;20025;-32
2022/05/22 08:20:14;;;;;;;3.50;1.00;;;;;;;28.00;27.38;96556.38;5061921;28;20039;-31
2022/05/22 08:22:40;;;;;;;2.65;1.10;;;;;;;28.00;27.56;96556.38;5069423;28;20847;-32
2022/05/22 08:25:06;;;;;;;2.78;1.13;;;;;;;28.00;27.58;96561.66;5058763;28;20028;-33
2022/05/22 08:27:32;;;;;;;2.83;1.20;;;;;;;27.99;27.49;96550.25;5063605;28;20024;-31
2022/05/22 08:29:57;;;;;;;2.33;1.20;;;;;;;27.99;27.48;96550.25;5063566;28;20054;-33
2022/05/22 08:32:22;;;;;;;1.10;0.90;;;;;;;27.98;27.51;96542.47;5063116;28;20140;-30
2022/05/22 08:34:48;;;;;;;5.47;1.50;;;;;;;28.00;27.67;96551.13;5059760;28;20032;-31
2022/05/22 08:37:13;;;;;;;3.80;1.27;;;;;;;27.99;27.47;96549.44;5054926;28;20035;-33
2022/05/22 08:39:39;;;;;;;5.10;1.27;;;;;;;27.99;27.32;96538.91;5055431;28;20394;-34
2022/05/22 08:42:09;;;;;;;2.92;1.58;;;;;;;27.98;27.47;96542.47;5048267;28;20036;-33
2022/05/22 08:44:35;;;;;;;4.03;1.25;;;;;;;27.99;27.28;96529.19;5064062;28;20016;-30
2022/05/22 08:47:28;;;;;;;2.20;1.23;;;;;;;28.01;27.48;96531.72;5060069;28;20097;-34
2022/05/22 08:49:59;;;;;;;8.93;1.80;;;;;;;28.02;27.50;96529.00;5058219;28;20032;-31
2022/05/22 08:52:43;;;;;;;6.43;1.67;;;;;;;28.03;27.32;96527.19;5038742;28;20044;-30
2022/05/22 08:55:09;;;;;;;3.67;1.70;;;;;;;28.06;27.34;96519.09;5059276;28;20046;-32
2022/05/22 09:00:30;;;;;;;4.20;1.80;;;;;;;28.10;27.45;96519.75;5052637;28;20517;-32
2022/05/22 09:03:04;;;;;;;5.88;1.67;;;;;;;28.12;27.42;96526.59;5053024;28;20036;-32
2022/05/22 09:05:29;;;;;;;5.70;1.40;;;;;;;28.12;27.29;96523.97;5059762;28;20063;-33
2022/05/22 09:07:56;;;;;;;4.57;1.77;;;;;;;28.13;27.29;96516.88;5059650;28;20024;-31
2022/05/22 09:10:30;;;;;;;4.57;2.10;;;;;;;28.15;27.50;96518.47;5057775;28;20059;-32
2022/05/22 09:13:04;;;;;;;7.05;1.80;;;;;;;28.18;27.29;96514.78;5058376;28;20036;-32
2022/05/22 09:15:49;;;;;;;3.88;1.45;;;;;;;28.19;27.30;96505.94;5046284;28;20709;-32
2022/05/22 09:18:37;;;;;;;5.88;1.95;;;;;;;28.22;27.49;96502.25;5058561;28;20586;-32
2022/05/22 09:21:31;;;;;;;6.93;1.98;;;;;;;28.22;27.37;96502.25;5058390;28;20074;-30
2022/05/22 09:24:01;;;;;;;5.50;1.80;;;;;;;28.23;27.71;96504.78;5065097;28;20058;-30
2022/05/22 09:26:56;;;;;;;5.00;1.77;;;;;;;28.23;27.57;96494.25;5065644;28;20050;-31
2022/05/22 09:29:46;;;;;;;9.52;2.58;;;;;;;28.25;27.67;96499.41;5052173;28;20297;-32
2022/05/22 09:32:11;;;;;;;12.75;3.10;;;;;;;28.26;27.69;96498.50;5069807;28;20074;-31
2022/05/22 09:34:50;;;;;;;9.50;3.45;;;;;;;28.27;27.84;96489.66;5066342;28;20857;-33
2022/05/22 09:37:38;;;;;;;9.65;3.10;;;;;;;28.28;27.74;96492.19;5064269;28;20040;-32
2022/05/22 09:40:22;;;;;;;10.25;3.33;;;;;;;28.28;28.06;96494.81;5067153;28;20025;-30
2022/05/22 09:43:11;;;;;;;12.25;3.28;;;;;;;28.30;27.83;96489.44;5066668;28;20037;-32
2022/05/22 09:46:07;;;;;;;10.68;3.67;;;;;;;28.32;27.89;96481.41;5067156;28;20031;-36
2022/05/22 09:49:06;;;;;;;11.75;3.58;;;;;;;28.32;27.99;96477.00;5069358;28;20020;-30
2022/05/22 09:51:43;;;;;;;11.38;3.40;;;;;;;28.33;28.07;96483.94;5067823;28;20033;-31
2022/05/22 09:54:27;;;;;;;11.88;3.58;;;;;;;28.35;27.96;96468.88;5069704;28;20590;-31
2022/05/22 09:57:14;;;;;;;12.60;3.72;;;;;;;28.36;28.18;96465.28;5068587;28;20054;-30
2022/05/22 09:59:43;;;;;;;11.73;3.35;;;;;;;28.36;28.31;96473.19;5066773;28;20055;-29
2022/05/22 10:02:26;;;;;;;9.75;3.30;;;;;;;28.38;28.16;96471.28;5068368;28;20119;-32
2022/05/22 10:05:01;;;;;;;12.40;3.67;;;;;;;28.39;28.31;96467.72;5068217;28;20487;-32
2022/05/22 10:07:44;;;;;;;13.52;3.53;;;;;;;28.39;28.21;96467.72;5063592;28;20025;-31
2022/05/22 10:10:34;;;;;;;10.18;3.15;;;;;;;28.40;28.30;96466.78;5058638;28;20016;-31
2022/05/22 10:13:16;;;;;;;10.25;3.20;;;;;;;28.43;28.31;96463.06;5058523;28;20142;-32
2022/05/22 10:15:52;;;;;;;11.25;3.25;;;;;;;28.43;28.09;96457.81;5036540;28;20089;-32
2022/05/22 10:18:50;;;;;;;10.63;3.30;;;;;;;28.43;28.29;96456.03;5044675;28;20071;-30
2022/05/22 10:21:32;;;;;;;10.45;3.25;;;;;;;28.45;28.36;96455.88;5043971;28;20024;-32
2022/05/22 10:24:10;;;;;;;8.73;3.17;;;;;;;28.46;28.18;96456.75;5044085;28;21384;-37
2022/05/22 10:26:44;;;;;;;11.18;3.17;;;;;;;28.47;28.35;96448.75;5043761;28;20811;-34
2022/05/22 10:29:30;;;;;;;11.50;3.20;;;;;;;28.49;28.28;96446.00;5049806;28;20047;-32
2022/05/22 10:32:13;;;;;;;9.68;3.13;;;;;;;28.49;28.24;96441.56;5055855;28;20095;-31
2022/05/22 10:35:05;;;;;;;7.57;2.78;;;;;;;28.51;28.44;96438.81;5068869;28;20051;-36
2022/05/22 10:37:37;;;;;;;;;;;;;;;28.52;28.52;96427.31;5050494;28;20524;-30
2022/05/22 10:40:07;;;;;;;7.45;2.95;;;;;;;28.52;28.47;96430.81;5059316;28;20006;-30
2022/05/22 10:42:46;;;;;;;10.10;2.85;;;;;;;28.53;28.60;96432.47;5059900;28;20040;-31
2022/05/22 10:45:32;;;;;;;6.65;2.60;;;;;;;28.54;28.66;96428.06;5060888;28;20300;-31
2022/05/22 10:48:19;;;;;;;5.55;2.47;;;;;;;28.55;28.51;96427.09;5056826;28;20032;-32
2022/05/22 10:50:56;;;;;;;8.32;2.40;;;;;;;28.55;28.57;96419.19;5061411;28;20044;-31
2022/05/22 10:53:46;;;;;;;5.78;2.58;;;;;;;28.56;28.40;96410.34;5059737;28;20082;-32
2022/05/22 10:56:14;;;;;;;6.85;2.67;;;;;;;28.56;28.76;96412.97;5057796;28;20116;-32
2022/05/22 10:58:48;;;;;;;5.88;2.50;;;;;;;28.58;28.48;96413.72;5058718;28;20560;-31
2022/05/22 11:01:19;;;;;;;8.40;2.35;;;;;;;28.59;28.81;96404.84;5058149;28;20131;-31
2022/05/22 11:03:44;;;;;;;5.80;2.00;;;;;;;28.59;28.54;96399.56;5057038;28;20486;-32
2022/05/22 11:06:21;;;;;;;5.65;2.28;;;;;;;28.59;28.48;96404.84;5060342;28;20044;-33
2022/05/22 11:08:49;;;;;;;5.43;2.25;;;;;;;28.62;28.57;96409.06;5060248;28;20016;-29
2022/05/22 11:11:18;;;;;;;6.30;2.50;;;;;;;28.62;28.61;96399.38;5056998;28;20642;-30
2022/05/22 11:13:43;;;;;;;4.85;2.10;;;;;;;28.63;28.58;96395.78;5060911;28;20036;-36
2022/05/22 11:16:17;;;;;;;5.68;2.08;;;;;;;28.63;28.70;96395.78;5059959;28;20024;-31
2022/05/22 11:18:42;;;;;;;5.68;2.28;;;;;;;28.65;28.68;96393.84;5057850;28;20033;-31
2022/05/22 11:21:31;;;;;;;5.47;1.92;;;;;;;28.66;28.78;96390.28;5059374;28;20055;-32
2022/05/22 11:24:06;;;;;;;4.93;2.30;;;;;;;28.67;28.83;96391.97;5059719;28;20537;-33
2022/05/22 11:26:49;;;;;;;6.07;2.40;;;;;;;28.69;28.78;96383.97;5062045;28;20446;-32
2022/05/22 11:29:30;;;;;;;5.13;1.98;;;;;;;28.69;28.76;96382.13;5063840;28;20090;-32
2022/05/22 11:32:00;;;;;;;5.43;2.07;;;;;;;28.71;28.87;96379.41;5040096;28;20035;-32
2022/05/22 11:34:40;;;;;;;8.85;2.17;;;;;;;28.71;28.80;96376.75;5021282;28;20024;-30
2022/05/22 11:37:37;;;;;;;6.88;2.08;;;;;;;28.72;28.94;96378.44;5027655;28;20110;-34
2022/05/22 11:40:05;;;;;;;3.22;1.67;;;;;;;28.74;28.67;96378.34;5024163;28;20072;-33
2022/05/22 11:42:34;;;;;;;6.93;2.22;;;;;;;28.74;28.77;96380.97;5031357;28;20033;-38
2022/05/22 11:45:21;;;;;;;3.80;1.65;;;;;;;28.76;28.94;96376.44;5028207;28;20356;-32
2022/05/22 11:48:11;;;;;;;5.18;2.00;;;;;;;28.73;29.15;96369.59;5035027;28;20032;-30
2022/05/22 11:50:36;;;;;;;4.13;1.80;;;;;;;28.79;29.02;96373.56;5036038;28;20137;-31
2022/05/22 11:53:07;;;;;;;3.78;1.73;;;;;;;28.77;28.95;96364.94;5034840;28;20044;-39
2022/05/22 11:55:49;;;;;;;4.10;1.83;;;;;;;28.79;29.10;96363.03;5028456;28;20517;-32